Time;durP1;ratioP1;P1;durP2;ratioP2;P2;SDS_P1;SDS_P2;PMS_P1;PMS_P2;Temp;Humidity;BMP_temperature;BMP_pressure;BME280_temperature;BME280_humidity;BME280_pressure;Samples;Min_cycle;Max_cycle;Signal;HPM_P1;HPM_P2
2022/12/02 00:01:40;;;;;;;31.38;12.90;;;3.90;99.90;;;;;;5044570;28;20108;-63
2022/12/02 00:04:32;;;;;;;28.40;12.57;;;3.80;99.90;;;;;;5043231;28;20037;-64
2022/12/02 00:06:59;;;;;;;29.90;11.75;;;3.80;99.90;;;;;;5040303;28;20056;-63
2022/12/02 00:09:33;;;;;;;25.13;11.57;;;3.80;99.90;;;;;;5029200;28;20060;-64
2022/12/02 00:12:05;;;;;;;34.10;11.75;;;3.80;99.90;;;;;;5034665;28;20499;-64
2022/12/02 00:14:34;;;;;;;21.45;11.40;;;3.80;99.90;;;;;;5038749;28;20636;-64
2022/12/02 00:16:59;;;;;;;26.00;12.20;;;3.70;99.90;;;;;;5038971;28;20040;-64
2022/12/02 00:19:25;;;;;;;26.08;10.93;;;3.80;99.90;;;;;;5039769;28;20106;-63
2022/12/02 00:21:51;;;;;;;23.25;10.68;;;3.70;99.90;;;;;;5038396;28;20018;-64
2022/12/02 00:24:18;;;;;;;29.23;11.35;;;3.70;99.90;;;;;;5044481;28;20029;-64
2022/12/02 00:26:44;;;;;;;23.88;9.95;;;3.70;99.90;;;;;;5051869;28;20120;-63
2022/12/02 00:29:09;;;;;;;26.45;11.07;;;3.70;99.90;;;;;;5054816;28;20112;-64
2022/12/02 00:31:35;;;;;;;28.55;11.10;;;3.70;99.90;;;;;;5044960;28;20144;-63
2022/12/02 00:34:01;;;;;;;22.42;11.00;;;3.70;99.90;;;;;;5044524;28;20074;-64
2022/12/02 00:36:28;;;;;;;24.00;9.73;;;3.70;99.90;;;;;;5045139;28;20021;-63
2022/12/02 00:38:54;;;;;;;22.77;9.93;;;3.70;99.90;;;;;;5053323;28;20021;-64
2022/12/02 00:41:19;;;;;;;21.23;10.50;;;3.70;99.90;;;;;;5047331;28;20025;-64
2022/12/02 00:46:32;;;;;;;22.63;10.57;;;3.60;99.90;;;;;;5052475;28;20079;-63
2022/12/02 00:48:58;;;;;;;23.20;10.77;;;3.60;99.90;;;;;;5055283;28;20028;-63
2022/12/02 00:51:25;;;;;;;26.20;11.07;;;3.50;99.90;;;;;;5047589;28;20039;-63
2022/12/02 00:53:50;;;;;;;25.48;11.30;;;3.60;99.90;;;;;;5038297;28;20041;-64
2022/12/02 00:56:16;;;;;;;22.10;9.95;;;3.60;99.90;;;;;;5054994;28;20025;-64
2022/12/02 00:58:41;;;;;;;28.02;12.27;;;3.50;99.90;;;;;;5036975;28;20528;-64
2022/12/02 01:01:07;;;;;;;26.98;12.15;;;3.50;99.90;;;;;;5029981;28;20048;-63
2022/12/02 01:03:33;;;;;;;27.33;12.35;;;3.50;99.90;;;;;;5040811;28;20037;-63
2022/12/02 01:05:59;;;;;;;26.58;11.63;;;3.60;99.90;;;;;;5039339;28;20031;-64
2022/12/02 01:08:26;;;;;;;28.00;11.88;;;3.60;99.90;;;;;;5016572;28;20038;-65
2022/12/02 01:10:52;;;;;;;27.15;13.52;;;3.60;99.90;;;;;;5049269;28;20029;-64
2022/12/02 01:13:18;;;;;;;24.65;9.95;;;3.60;99.90;;;;;;5049663;28;20517;-63
2022/12/02 01:15:44;;;;;;;23.65;10.70;;;3.60;99.90;;;;;;5045245;28;20103;-64
2022/12/02 01:18:10;;;;;;;22.27;10.23;;;3.60;99.90;;;;;;5048610;28;20021;-64
2022/12/02 01:20:36;;;;;;;19.40;9.88;;;3.50;99.90;;;;;;5053892;28;20031;-64
2022/12/02 01:23:01;;;;;;;25.65;10.40;;;3.50;99.90;;;;;;5036543;28;20375;-64
2022/12/02 01:25:27;;;;;;;26.50;11.68;;;3.50;99.90;;;;;;5040974;28;20032;-63
2022/12/02 01:27:52;;;;;;;24.60;10.63;;;3.50;99.90;;;;;;5037150;28;20037;-64
2022/12/02 01:30:18;;;;;;;20.05;9.55;;;3.50;99.90;;;;;;5033876;28;20420;-63
2022/12/02 01:32:44;;;;;;;21.38;9.85;;;3.50;99.90;;;;;;5033233;28;20418;-64
2022/12/02 01:35:09;;;;;;;24.80;10.40;;;3.60;99.90;;;;;;5042012;28;20025;-64
2022/12/02 01:37:36;;;;;;;23.92;10.43;;;3.60;99.90;;;;;;5047440;28;20104;-64
2022/12/02 01:40:03;;;;;;;21.48;10.40;;;3.50;99.90;;;;;;5038312;28;20395;-64
2022/12/02 01:42:28;;;;;;;25.10;9.95;;;3.50;99.90;;;;;;5037052;28;20033;-63
2022/12/02 01:44:54;;;;;;;28.88;12.57;;;3.50;99.90;;;;;;5038278;28;20096;-64
2022/12/02 01:47:19;;;;;;;27.63;11.45;;;3.50;99.90;;;;;;5048212;28;20026;-63
2022/12/02 01:49:45;;;;;;;22.20;10.52;;;3.50;99.90;;;;;;5038378;28;20057;-63
2022/12/02 01:52:11;;;;;;;24.17;10.35;;;3.40;99.90;;;;;;5037448;28;20029;-64
2022/12/02 01:54:36;;;;;;;22.23;10.43;;;3.40;99.90;;;;;;5042224;28;20037;-64
2022/12/02 01:57:03;;;;;;;28.20;11.88;;;3.50;99.90;;;;;;5034616;28;20037;-64
2022/12/02 01:59:29;;;;;;;19.67;10.88;;;3.60;99.90;;;;;;5035610;28;20030;-64
2022/12/02 02:01:54;;;;;;;25.02;10.70;;;3.50;99.90;;;;;;5031828;28;20498;-63
2022/12/02 02:04:20;;;;;;;30.38;11.40;;;3.60;99.90;;;;;;5035017;28;20510;-63
2022/12/02 02:06:46;;;;;;;24.92;11.02;;;3.60;99.90;;;;;;5038235;28;20540;-63
2022/12/02 02:09:13;;;;;;;29.48;12.38;;;3.50;99.90;;;;;;5017056;28;20159;-63
2022/12/02 02:11:40;;;;;;;23.33;10.25;;;3.60;99.90;;;;;;5041300;28;22113;-63
2022/12/02 02:14:08;;;;;;;28.17;12.18;;;3.60;99.90;;;;;;5040520;28;20048;-64
2022/12/02 02:16:35;;;;;;;28.00;11.48;;;3.60;99.90;;;;;;5046489;28;20433;-63
2022/12/02 02:19:02;;;;;;;28.15;12.23;;;3.60;99.90;;;;;;5041513;28;20040;-63
2022/12/02 02:21:33;;;;;;;30.38;11.02;;;3.60;99.90;;;;;;5051184;28;20028;-62
2022/12/02 02:23:58;;;;;;;28.85;10.75;;;3.60;99.90;;;;;;5053483;28;20040;-63
2022/12/02 02:26:24;;;;;;;29.30;10.70;;;3.60;99.90;;;;;;5048163;28;20522;-63
2022/12/02 02:28:50;;;;;;;24.60;10.52;;;3.60;99.90;;;;;;5055391;28;20044;-63
2022/12/02 02:31:15;;;;;;;33.38;11.43;;;3.60;99.90;;;;;;5051893;28;20033;-64
2022/12/02 02:33:41;;;;;;;26.77;11.70;;;3.70;99.90;;;;;;5058050;28;20090;-64
2022/12/02 02:36:08;;;;;;;25.52;10.48;;;3.70;99.90;;;;;;5045802;28;20087;-63
2022/12/02 02:38:35;;;;;;;25.38;10.38;;;3.70;99.90;;;;;;5054960;28;20736;-63
2022/12/02 02:41:01;;;;;;;28.05;12.02;;;3.70;99.90;;;;;;5051938;28;20499;-63
2022/12/02 02:43:28;;;;;;;31.13;11.90;;;3.60;99.90;;;;;;5056868;28;20048;-64
2022/12/02 02:45:54;;;;;;;30.73;11.57;;;3.60;99.90;;;;;;5063041;28;20056;-64
2022/12/02 02:48:21;;;;;;;31.88;12.18;;;3.60;99.90;;;;;;5055155;28;20549;-64
2022/12/02 02:50:48;;;;;;;28.50;13.00;;;3.60;99.90;;;;;;5048933;28;20033;-64
2022/12/02 02:53:16;;;;;;;28.33;12.23;;;3.60;99.90;;;;;;5047069;28;20478;-64
2022/12/02 02:55:42;;;;;;;31.83;12.80;;;3.60;99.90;;;;;;5057712;28;20033;-64
2022/12/02 02:58:13;;;;;;;31.88;12.45;;;3.60;99.90;;;;;;5054454;28;20047;-63
2022/12/02 03:00:42;;;;;;;25.40;12.13;;;3.60;99.90;;;;;;5057429;28;20025;-64
2022/12/02 03:03:11;;;;;;;31.65;12.75;;;3.60;99.90;;;;;;5052963;28;20033;-62
2022/12/02 03:05:37;;;;;;;26.58;11.85;;;3.60;99.90;;;;;;5050578;28;20029;-63
2022/12/02 03:08:03;;;;;;;29.42;11.75;;;3.60;99.90;;;;;;5053315;28;20053;-64
2022/12/02 03:10:29;;;;;;;26.75;12.43;;;3.70;99.90;;;;;;5031183;28;20050;-64
2022/12/02 03:12:55;;;;;;;26.70;10.98;;;3.60;99.90;;;;;;5048468;28;20601;-63
2022/12/02 03:15:23;;;;;;;25.15;10.82;;;3.70;99.90;;;;;;5053234;28;20398;-63
2022/12/02 03:17:49;;;;;;;26.85;11.52;;;3.70;99.90;;;;;;5044535;28;20032;-63
2022/12/02 03:20:15;;;;;;;26.15;11.55;;;3.60;99.90;;;;;;5054696;28;20766;-63
2022/12/02 03:22:41;;;;;;;32.53;13.25;;;3.60;99.90;;;;;;5054666;28;20021;-64
2022/12/02 03:25:08;;;;;;;35.90;13.25;;;3.60;99.90;;;;;;5052206;28;20555;-63
2022/12/02 03:27:34;;;;;;;34.83;13.18;;;3.60;99.90;;;;;;5042084;28;20394;-62
2022/12/02 03:30:00;;;;;;;30.38;13.00;;;3.60;99.90;;;;;;5054280;28;20500;-63
2022/12/02 03:32:25;;;;;;;37.28;14.60;;;3.60;99.90;;;;;;5049535;28;20043;-63
2022/12/02 03:34:52;;;;;;;35.42;13.43;;;3.60;99.90;;;;;;5049887;28;20041;-62
2022/12/02 03:37:18;;;;;;;30.80;12.98;;;3.50;99.90;;;;;;5037483;28;20047;-63
2022/12/02 03:39:44;;;;;;;30.90;12.95;;;3.50;99.90;;;;;;5048101;28;20117;-63
2022/12/02 03:42:09;;;;;;;29.67;12.77;;;3.60;99.90;;;;;;5048015;28;20667;-62
2022/12/02 03:44:35;;;;;;;28.67;11.30;;;3.50;99.90;;;;;;5053913;28;20025;-63
2022/12/02 03:47:01;;;;;;;30.50;11.95;;;3.50;99.90;;;;;;5048912;28;20037;-62
2022/12/02 03:49:28;;;;;;;29.98;12.48;;;3.60;99.90;;;;;;5050688;28;20078;-63
2022/12/02 03:51:54;;;;;;;31.67;13.15;;;3.60;99.90;;;;;;5047889;28;20040;-64
2022/12/02 03:54:19;;;;;;;31.58;12.48;;;3.50;99.90;;;;;;5051626;28;20036;-63
2022/12/02 03:56:45;;;;;;;31.83;13.32;;;3.60;99.90;;;;;;5053973;28;20540;-64
2022/12/02 03:59:19;;;;;;;34.58;14.38;;;3.60;99.90;;;;;;5055310;28;20028;-63
2022/12/02 04:01:45;;;;;;;34.25;13.38;;;3.60;99.90;;;;;;5045065;28;20779;-64
2022/12/02 04:04:10;;;;;;;35.90;13.20;;;3.60;99.90;;;;;;5056956;28;20064;-63
2022/12/02 04:06:36;;;;;;;35.33;13.35;;;3.50;99.90;;;;;;5045517;28;20017;-63
2022/12/02 04:09:02;;;;;;;32.35;13.20;;;3.50;99.90;;;;;;5034906;28;20506;-64
2022/12/02 04:11:27;;;;;;;37.83;14.77;;;3.60;99.90;;;;;;5050836;28;20029;-62
2022/12/02 04:13:53;;;;;;;37.40;14.13;;;3.50;99.90;;;;;;5052838;28;20040;-64
2022/12/02 04:16:18;;;;;;;37.83;15.18;;;3.60;99.90;;;;;;5049393;28;20031;-63
2022/12/02 04:18:44;;;;;;;35.17;13.68;;;3.60;99.90;;;;;;5045955;28;20171;-63
2022/12/02 04:21:09;;;;;;;30.35;13.10;;;3.60;99.90;;;;;;5047335;28;20028;-62
2022/12/02 04:23:35;;;;;;;41.83;15.05;;;3.60;99.90;;;;;;5050113;28;20041;-64
2022/12/02 04:26:00;;;;;;;38.58;15.32;;;3.50;99.90;;;;;;5052562;28;20032;-62
2022/12/02 04:28:27;;;;;;;37.97;14.32;;;3.50;99.90;;;;;;5046508;28;20082;-63
2022/12/02 04:30:52;;;;;;;37.95;14.13;;;3.60;99.90;;;;;;5050115;28;20032;-63
2022/12/02 04:33:18;;;;;;;33.38;14.18;;;3.50;99.90;;;;;;5043322;28;20557;-63
2022/12/02 04:35:43;;;;;;;34.92;13.55;;;3.50;99.90;;;;;;5039369;28;20054;-63
2022/12/02 04:38:09;;;;;;;39.92;14.18;;;3.50;99.90;;;;;;5047586;28;20042;-63
2022/12/02 04:40:34;;;;;;;36.50;12.95;;;3.50;99.90;;;;;;5047615;28;20127;-64
2022/12/02 04:43:00;;;;;;;37.15;14.45;;;3.50;99.90;;;;;;5042584;28;20041;-64
2022/12/02 04:45:26;;;;;;;40.80;14.07;;;3.50;99.90;;;;;;5053789;28;20025;-64
2022/12/02 04:47:51;;;;;;;39.90;15.05;;;3.50;99.90;;;;;;5045355;28;20037;-64
2022/12/02 04:50:17;;;;;;;39.65;13.82;;;3.50;99.90;;;;;;5046579;28;20071;-64
2022/12/02 04:52:42;;;;;;;37.35;13.60;;;3.60;99.90;;;;;;5049692;28;20116;-64
2022/12/02 04:55:08;;;;;;;32.83;13.48;;;3.50;99.90;;;;;;5050728;28;20037;-62
2022/12/02 04:57:34;;;;;;;35.08;13.23;;;3.50;99.90;;;;;;5043403;28;20037;-64
2022/12/02 04:59:59;;;;;;;39.88;14.18;;;3.50;99.90;;;;;;5052300;28;20036;-64
2022/12/02 05:02:25;;;;;;;35.55;14.65;;;3.40;99.90;;;;;;5052853;28;20036;-63
2022/12/02 05:04:50;;;;;;;42.63;15.13;;;3.50;99.90;;;;;;5049322;28;20110;-63
2022/12/02 05:07:16;;;;;;;35.90;14.25;;;3.50;99.90;;;;;;5045971;28;20040;-64
2022/12/02 05:09:41;;;;;;;39.92;15.18;;;3.50;99.90;;;;;;5025287;28;20053;-64
2022/12/02 05:12:07;;;;;;;40.78;14.40;;;3.50;99.90;;;;;;5048176;28;20052;-63
2022/12/02 05:14:33;;;;;;;38.60;14.68;;;3.40;99.90;;;;;;5047578;28;20037;-64
2022/12/02 05:16:58;;;;;;;41.08;14.88;;;3.40;99.90;;;;;;5048739;28;20029;-64
2022/12/02 05:19:24;;;;;;;43.75;13.70;;;3.40;99.90;;;;;;5045951;28;20462;-64
2022/12/02 05:21:49;;;;;;;37.72;14.82;;;3.40;99.90;;;;;;5045542;28;20033;-63
2022/12/02 05:24:15;;;;;;;30.98;12.93;;;3.40;99.90;;;;;;5041996;28;20045;-64
2022/12/02 05:26:41;;;;;;;38.15;13.88;;;3.40;99.90;;;;;;5045489;28;20052;-63
2022/12/02 05:29:07;;;;;;;42.70;15.00;;;3.40;99.90;;;;;;5052029;28;20498;-61
2022/12/02 05:31:32;;;;;;;43.88;15.20;;;3.40;99.90;;;;;;5048001;28;20131;-63
2022/12/02 05:33:58;;;;;;;37.35;15.55;;;3.40;99.90;;;;;;5049901;28;20033;-63
2022/12/02 05:36:23;;;;;;;44.28;15.57;;;3.40;99.90;;;;;;5047607;28;20033;-64
2022/12/02 05:38:49;;;;;;;36.92;15.00;;;3.40;99.90;;;;;;5048155;28;20036;-63
2022/12/02 05:41:14;;;;;;;44.10;15.82;;;3.40;99.90;;;;;;5046415;28;20048;-63
2022/12/02 05:43:41;;;;;;;46.58;15.55;;;3.40;99.90;;;;;;5047513;28;20040;-63
2022/12/02 05:46:16;;;;;;;44.95;17.20;;;3.40;99.90;;;;;;5049114;28;20036;-64
2022/12/02 05:48:42;;;;;;;46.20;16.15;;;3.40;99.90;;;;;;5042589;28;20040;-63
2022/12/02 05:51:15;;;;;;;44.35;15.38;;;3.40;99.90;;;;;;5048324;28;20098;-63
2022/12/02 05:53:42;;;;;;;46.00;16.63;;;3.30;99.90;;;;;;5054259;28;20474;-64
2022/12/02 05:56:21;;;;;;;44.28;16.40;;;3.30;99.90;;;;;;5051600;28;20039;-63
2022/12/02 05:58:46;;;;;;;54.45;17.45;;;3.40;99.90;;;;;;5053379;28;20031;-64
2022/12/02 06:01:20;;;;;;;47.13;15.85;;;3.40;99.90;;;;;;5054648;28;20033;-63
2022/12/02 06:03:46;;;;;;;;;;;3.40;99.90;;;;;;5050546;28;20401;-63
2022/12/02 06:06:11;;;;;;;45.45;15.27;;;3.40;99.90;;;;;;5048708;28;20023;-63
2022/12/02 06:08:37;;;;;;;45.60;15.30;;;3.30;99.90;;;;;;5052346;28;20047;-64
2022/12/02 06:11:13;;;;;;;47.28;17.02;;;3.30;99.90;;;;;;5038980;28;20132;-63
2022/12/02 06:13:38;;;;;;;43.67;14.70;;;3.30;99.90;;;;;;5051588;28;20025;-63
2022/12/02 06:16:10;;;;;;;48.75;18.00;;;3.30;99.90;;;;;;5051182;28;20155;-63
2022/12/02 06:18:37;;;;;;;50.05;16.40;;;3.30;99.90;;;;;;5049840;28;20021;-64
2022/12/02 06:21:10;;;;;;;53.78;17.95;;;3.40;99.90;;;;;;5053764;28;20455;-63
2022/12/02 06:23:44;;;;;;;47.95;17.35;;;3.30;99.90;;;;;;5052696;28;20024;-63
2022/12/02 06:26:13;;;;;;;48.22;17.38;;;3.30;99.90;;;;;;5051951;28;20025;-63
2022/12/02 06:28:40;;;;;;;41.70;14.93;;;3.30;99.90;;;;;;5051036;28;20047;-63
2022/12/02 06:31:32;;;;;;;60.35;17.38;;;3.40;99.90;;;;;;5050763;28;20025;-61
2022/12/02 06:34:00;;;;;;;44.38;15.88;;;3.40;99.90;;;;;;5049479;28;20031;-63
2022/12/02 06:36:30;;;;;;;38.88;15.10;;;3.40;99.90;;;;;;5052827;28;20096;-64
2022/12/02 06:39:00;;;;;;;46.72;16.10;;;3.50;99.90;;;;;;5049574;28;20033;-63
2022/12/02 06:41:35;;;;;;;48.10;16.88;;;3.50;99.90;;;;;;5049175;28;20459;-63
2022/12/02 06:46:54;;;;;;;44.97;14.50;;;3.50;99.90;;;;;;5048565;28;20580;-63
2022/12/02 06:49:29;;;;;;;49.38;16.95;;;3.60;99.90;;;;;;5040996;28;20029;-62
2022/12/02 06:52:18;;;;;;;52.83;15.90;;;3.50;99.90;;;;;;5049775;28;20079;-64
2022/12/02 06:54:45;;;;;;;49.25;16.40;;;3.50;99.90;;;;;;5045119;28;20110;-64
2022/12/02 06:57:11;;;;;;;46.08;17.10;;;3.50;99.90;;;;;;5050764;28;20025;-63
2022/12/02 06:59:36;;;;;;;49.13;17.65;;;3.60;99.90;;;;;;5049669;28;20021;-63
2022/12/02 07:02:21;;;;;;;51.42;18.30;;;3.60;99.90;;;;;;5051121;28;20075;-64
2022/12/02 07:04:50;;;;;;;58.65;17.52;;;3.60;99.90;;;;;;5052233;28;20098;-64
2022/12/02 07:07:19;;;;;;;61.28;18.80;;;3.60;99.90;;;;;;5047508;28;20040;-64
2022/12/02 07:09:54;;;;;;;47.95;17.50;;;3.60;99.90;;;;;;5027882;28;20045;-64
2022/12/02 07:12:24;;;;;;;50.40;15.63;;;3.60;99.90;;;;;;5045204;28;20502;-63
2022/12/02 07:14:52;;;;;;;44.55;18.13;;;3.60;99.90;;;;;;5047974;28;20033;-63
2022/12/02 07:17:39;;;;;;;58.58;19.83;;;3.60;99.90;;;;;;5048990;28;20032;-63
2022/12/02 07:20:04;;;;;;;55.05;17.85;;;3.60;99.90;;;;;;5056426;28;20082;-64
2022/12/02 07:22:43;;;;;;;53.25;16.33;;;3.70;99.90;;;;;;5050368;28;20578;-64
2022/12/02 07:25:09;;;;;;;51.88;17.05;;;3.60;99.90;;;;;;5048399;28;20029;-63
2022/12/02 07:27:40;;;;;;;49.72;17.67;;;3.60;99.90;;;;;;5044208;28;20096;-65
2022/12/02 07:30:34;;;;;;;54.45;16.33;;;3.60;99.90;;;;;;5058457;28;20516;-65
2022/12/02 07:33:00;;;;;;;62.58;18.48;;;3.60;99.90;;;;;;5047562;28;20025;-64
2022/12/02 07:35:26;;;;;;;60.40;17.02;;;3.60;99.90;;;;;;5050558;28;20017;-64
2022/12/02 07:37:52;;;;;;;51.13;18.13;;;3.60;99.90;;;;;;5046416;28;20344;-63
2022/12/02 07:40:18;;;;;;;54.83;17.25;;;3.60;99.90;;;;;;5052565;28;20044;-63
2022/12/02 07:42:44;;;;;;;51.72;17.08;;;3.60;99.90;;;;;;5044947;28;20036;-63
2022/12/02 07:45:15;;;;;;;54.10;16.85;;;3.70;99.90;;;;;;5049356;28;20477;-64
2022/12/02 07:47:40;;;;;;;54.58;17.63;;;3.70;99.90;;;;;;5040792;28;20020;-63
2022/12/02 07:50:07;;;;;;;58.17;18.83;;;3.60;99.90;;;;;;5052795;28;20548;-64
2022/12/02 07:52:33;;;;;;;55.40;18.23;;;3.70;99.90;;;;;;5049875;28;20389;-63
2022/12/02 07:55:00;;;;;;;47.90;17.20;;;3.60;99.90;;;;;;5053196;28;20101;-64
2022/12/02 07:57:26;;;;;;;48.78;17.48;;;3.60;99.90;;;;;;5048214;28;20036;-64
2022/12/02 07:59:52;;;;;;;52.38;17.65;;;3.60;99.90;;;;;;5047870;28;20017;-64
2022/12/02 08:02:18;;;;;;;61.58;18.48;;;3.60;99.90;;;;;;5047944;28;20039;-64
2022/12/02 08:04:43;;;;;;;59.08;19.13;;;3.60;99.90;;;;;;5047936;28;20509;-63
2022/12/02 08:07:09;;;;;;;49.75;16.73;;;3.70;99.90;;;;;;5036978;28;20034;-64
2022/12/02 08:09:35;;;;;;;46.63;16.08;;;3.70;99.90;;;;;;5030602;28;20036;-64
2022/12/02 08:12:00;;;;;;;47.00;18.23;;;3.70;99.90;;;;;;5046831;28;20505;-64
2022/12/02 08:14:26;;;;;;;42.13;15.05;;;3.70;99.90;;;;;;5046311;28;21488;-63
2022/12/02 08:16:51;;;;;;;50.47;17.83;;;3.70;99.90;;;;;;5045885;28;20039;-64
2022/12/02 08:19:17;;;;;;;47.55;15.07;;;3.70;99.90;;;;;;5050296;28;20031;-64
2022/12/02 08:21:43;;;;;;;50.50;17.90;;;3.70;99.90;;;;;;5049195;28;20060;-64
2022/12/02 08:24:08;;;;;;;42.50;14.98;;;3.70;99.90;;;;;;5050638;28;20605;-63
2022/12/02 08:26:34;;;;;;;47.85;17.65;;;3.80;99.90;;;;;;5043319;28;20029;-64
2022/12/02 08:29:00;;;;;;;44.63;17.20;;;3.70;99.90;;;;;;5048852;28;20550;-63
2022/12/02 08:31:26;;;;;;;41.53;16.38;;;3.80;99.90;;;;;;5045632;28;20112;-63
2022/12/02 08:33:53;;;;;;;47.20;17.27;;;3.80;99.90;;;;;;5050114;28;20163;-64
2022/12/02 08:36:19;;;;;;;45.35;16.35;;;3.90;99.90;;;;;;5049114;28;21197;-63
2022/12/02 08:38:46;;;;;;;54.78;18.17;;;3.90;99.90;;;;;;5050181;28;20025;-63
2022/12/02 08:41:12;;;;;;;54.20;17.23;;;3.90;99.90;;;;;;5048543;28;20479;-63
2022/12/02 08:43:38;;;;;;;40.72;15.65;;;3.90;99.90;;;;;;5045618;28;20033;-63
2022/12/02 08:46:04;;;;;;;48.03;18.33;;;3.90;99.90;;;;;;5039774;28;20029;-64
2022/12/02 08:48:30;;;;;;;39.75;15.93;;;3.90;99.90;;;;;;5055224;28;20129;-64
2022/12/02 08:50:56;;;;;;;49.72;17.58;;;4.00;99.90;;;;;;5047575;28;20068;-63
2022/12/02 08:53:21;;;;;;;44.58;17.23;;;4.00;99.90;;;;;;5051860;28;20436;-64
2022/12/02 08:55:47;;;;;;;46.45;17.90;;;4.00;99.90;;;;;;5049279;28;20032;-64
2022/12/02 08:58:12;;;;;;;46.85;16.63;;;4.10;99.90;;;;;;5047547;28;20021;-64
2022/12/02 09:00:39;;;;;;;42.55;15.00;;;4.10;99.90;;;;;;5046821;28;20053;-64
2022/12/02 09:03:06;;;;;;;45.20;16.90;;;4.10;99.90;;;;;;5049080;28;20029;-64
2022/12/02 09:05:33;;;;;;;48.58;16.67;;;4.10;99.90;;;;;;5047318;28;20143;-65
2022/12/02 09:07:59;;;;;;;50.35;16.98;;;4.10;99.90;;;;;;5043717;28;20025;-64
2022/12/02 09:10:24;;;;;;;43.67;17.85;;;4.10;99.90;;;;;;5023153;28;20107;-63
2022/12/02 09:12:50;;;;;;;46.75;16.10;;;4.10;99.90;;;;;;5046606;28;20032;-64
2022/12/02 09:15:15;;;;;;;49.55;16.48;;;4.10;99.90;;;;;;5049142;28;20398;-64
2022/12/02 09:17:41;;;;;;;42.92;14.98;;;4.10;99.90;;;;;;5049586;28;20019;-64
2022/12/02 09:20:07;;;;;;;52.08;18.38;;;4.20;99.90;;;;;;5056531;28;20116;-64
2022/12/02 09:22:32;;;;;;;47.65;18.25;;;4.20;99.90;;;;;;5044890;28;20025;-64
2022/12/02 09:24:58;;;;;;;47.60;17.23;;;4.10;99.90;;;;;;5040197;28;20029;-64
2022/12/02 09:27:24;;;;;;;45.00;17.02;;;4.20;99.90;;;;;;5029895;28;20112;-64
2022/12/02 09:29:49;;;;;;;42.05;17.98;;;4.20;99.90;;;;;;5051512;28;20043;-64
2022/12/02 09:32:15;;;;;;;46.20;16.85;;;4.30;99.90;;;;;;5051302;28;20449;-64
2022/12/02 09:34:40;;;;;;;48.33;18.05;;;4.30;99.90;;;;;;5047220;28;20029;-63
2022/12/02 09:37:06;;;;;;;47.35;18.30;;;4.30;99.90;;;;;;5049089;28;20028;-63
2022/12/02 09:39:31;;;;;;;33.45;14.75;;;4.40;99.90;;;;;;5045527;28;20029;-64
2022/12/02 09:41:57;;;;;;;41.50;16.85;;;4.40;99.90;;;;;;5048323;28;20139;-64
2022/12/02 09:44:24;;;;;;;48.53;17.95;;;4.40;99.90;;;;;;5049044;28;20120;-64
2022/12/02 09:46:49;;;;;;;39.65;15.40;;;4.50;99.90;;;;;;5055264;28;20064;-64
2022/12/02 09:49:15;;;;;;;41.17;15.85;;;4.50;99.90;;;;;;5041673;28;20060;-64
2022/12/02 09:51:41;;;;;;;48.05;16.85;;;4.50;99.90;;;;;;5048912;28;20029;-64
2022/12/02 09:54:07;;;;;;;47.08;16.48;;;4.50;99.90;;;;;;5045238;28;20044;-63
2022/12/02 09:56:34;;;;;;;42.13;16.27;;;4.50;99.90;;;;;;5043635;28;20494;-64
2022/12/02 09:59:10;;;;;;;43.00;16.08;;;4.60;99.90;;;;;;5046692;28;20494;-63
2022/12/02 10:01:36;;;;;;;37.30;16.55;;;4.60;99.90;;;;;;5047753;28;20017;-64
2022/12/02 10:04:03;;;;;;;36.80;15.15;;;4.60;99.90;;;;;;5049885;28;20036;-64
2022/12/02 10:06:29;;;;;;;40.25;15.73;;;4.60;99.90;;;;;;5040519;28;20106;-64
2022/12/02 10:08:56;;;;;;;50.00;16.77;;;4.50;99.90;;;;;;5049880;28;20052;-63
2022/12/02 10:11:34;;;;;;;34.17;14.20;;;4.50;99.90;;;;;;5034324;28;20692;-64
2022/12/02 10:14:02;;;;;;;47.10;16.27;;;4.50;99.90;;;;;;5047604;28;20502;-64
2022/12/02 10:16:28;;;;;;;41.63;15.77;;;4.50;99.90;;;;;;5045848;28;20018;-63
2022/12/02 10:18:59;;;;;;;43.72;15.90;;;4.60;99.90;;;;;;5052228;28;20016;-64
2022/12/02 10:21:25;;;;;;;46.60;17.05;;;4.60;99.90;;;;;;5044964;28;20379;-63
2022/12/02 10:23:56;;;;;;;43.45;14.43;;;4.60;99.90;;;;;;5049255;28;20021;-64
2022/12/02 10:26:22;;;;;;;47.28;15.63;;;4.70;99.90;;;;;;5050046;28;20052;-64
2022/12/02 10:29:05;;;;;;;36.15;14.45;;;4.70;99.90;;;;;;5051698;28;20078;-64
2022/12/02 10:31:32;;;;;;;36.58;14.73;;;4.70;99.90;;;;;;5037758;28;20146;-64
2022/12/02 10:34:00;;;;;;;42.78;14.32;;;4.70;99.90;;;;;;5048023;28;20029;-64
2022/12/02 10:36:40;;;;;;;39.10;14.80;;;4.70;99.90;;;;;;5050408;28;20100;-64
2022/12/02 10:39:26;;;;;;;38.88;15.00;;;4.80;99.90;;;;;;5047553;28;20013;-64
2022/12/02 10:42:07;;;;;;;34.80;13.40;;;4.80;99.90;;;;;;5052825;28;20528;-64
2022/12/02 10:44:44;;;;;;;40.33;14.82;;;4.80;99.90;;;;;;5044043;28;20532;-64
2022/12/02 10:47:23;;;;;;;32.45;12.77;;;4.90;99.90;;;;;;5051350;28;20019;-63
2022/12/02 10:49:58;;;;;;;41.35;14.15;;;4.90;99.90;;;;;;5051049;28;20632;-64
2022/12/02 10:52:34;;;;;;;31.08;12.98;;;4.90;99.90;;;;;;5049982;28;20586;-64
2022/12/02 10:55:01;;;;;;;37.33;12.35;;;5.00;99.90;;;;;;5053393;28;20071;-64
2022/12/02 10:57:30;;;;;;;34.78;13.10;;;5.00;99.90;;;;;;5056965;28;20021;-64
2022/12/02 10:59:58;;;;;;;30.23;13.95;;;4.90;99.90;;;;;;5045688;28;20049;-65
2022/12/02 11:02:44;;;;;;;34.42;12.43;;;4.90;99.90;;;;;;5045357;28;20021;-63
2022/12/02 11:05:32;;;;;;;35.47;12.80;;;4.90;99.90;;;;;;5043983;28;20029;-61
2022/12/02 11:08:16;;;;;;;34.60;12.77;;;4.80;99.90;;;;;;5042067;28;20438;-63
2022/12/02 11:10:44;;;;;;;36.97;12.88;;;4.80;99.90;;;;;;5030321;28;20048;-64
2022/12/02 11:13:12;;;;;;;33.42;13.20;;;4.80;99.90;;;;;;5051238;28;20032;-63
2022/12/02 11:15:51;;;;;;;30.73;13.68;;;4.80;99.90;;;;;;5047335;28;20498;-64
2022/12/02 11:18:29;;;;;;;33.72;13.07;;;4.80;99.90;;;;;;5049188;28;20167;-62
2022/12/02 11:21:26;;;;;;;31.88;12.48;;;4.80;99.90;;;;;;5048809;28;20036;-65
2022/12/02 11:24:23;;;;;;;25.48;11.88;;;4.70;99.90;;;;;;5038003;28;20036;-64
2022/12/02 11:27:09;;;;;;;29.23;11.85;;;4.70;99.90;;;;;;5041305;28;20515;-63
2022/12/02 11:30:02;;;;;;;29.85;12.25;;;4.70;99.90;;;;;;5042350;28;20033;-64
2022/12/02 11:32:28;;;;;;;31.10;12.38;;;4.70;99.90;;;;;;5047010;28;20037;-63
2022/12/02 11:34:59;;;;;;;30.60;12.23;;;4.60;99.90;;;;;;5045185;28;20032;-64
2022/12/02 11:37:33;;;;;;;27.38;11.45;;;4.70;99.90;;;;;;5054271;28;20033;-64
2022/12/02 11:40:21;;;;;;;30.85;13.18;;;4.70;99.90;;;;;;5044297;28;20057;-63
2022/12/02 11:42:47;;;;;;;28.40;12.05;;;4.60;99.90;;;;;;5044966;28;20021;-63
2022/12/02 11:45:15;;;;;;;31.63;11.00;;;4.60;99.90;;;;;;5044115;28;20032;-63
2022/12/02 11:47:58;;;;;;;19.88;8.05;;;4.50;99.90;;;;;;5049990;28;20106;-64
2022/12/02 11:50:34;;;;;;;9.23;4.72;;;4.50;99.90;;;;;;5049431;28;20055;-63
2022/12/02 11:53:03;;;;;;;14.93;6.03;;;4.50;99.90;;;;;;5046686;28;20661;-64
2022/12/02 11:55:40;;;;;;;13.95;6.05;;;4.50;99.90;;;;;;5056347;28;20518;-64
2022/12/02 11:58:21;;;;;;;10.35;5.25;;;4.40;99.90;;;;;;5055085;28;20035;-64
2022/12/02 12:01:00;;;;;;;9.35;4.47;;;4.50;99.90;;;;;;5049539;28;20025;-63
2022/12/02 12:03:26;;;;;;;8.82;5.07;;;4.40;99.90;;;;;;5044892;28;20214;-64
2022/12/02 12:06:10;;;;;;;8.38;4.60;;;4.40;99.90;;;;;;5037448;28;20706;-64
2022/12/02 12:08:38;;;;;;;8.10;4.13;;;4.40;99.90;;;;;;5037531;28;20017;-64
2022/12/02 12:11:22;;;;;;;7.60;3.88;;;4.40;99.90;;;;;;5031539;28;20051;-64
2022/12/02 12:14:04;;;;;;;9.70;3.90;;;4.40;99.90;;;;;;5047987;28;20047;-63
2022/12/02 12:16:39;;;;;;;7.97;4.30;;;4.40;99.90;;;;;;5048294;28;20110;-64
2022/12/02 12:19:25;;;;;;;7.85;3.97;;;4.40;99.90;;;;;;5054519;28;20082;-64
2022/12/02 12:21:54;;;;;;;8.55;4.57;;;4.50;99.90;;;;;;5043983;28;20028;-64
2022/12/02 12:24:20;;;;;;;8.48;4.50;;;4.40;99.90;;;;;;5047614;28;20021;-63
2022/12/02 12:26:45;;;;;;;9.05;4.38;;;4.40;99.90;;;;;;5047704;28;20490;-62
2022/12/02 12:29:11;;;;;;;9.63;4.65;;;4.40;99.90;;;;;;5046047;28;20021;-62
2022/12/02 12:31:37;;;;;;;9.52;4.90;;;4.40;99.90;;;;;;5043927;28;20029;-64
2022/12/02 12:34:03;;;;;;;9.10;4.32;;;4.50;99.90;;;;;;5045571;28;20048;-65
2022/12/02 12:36:29;;;;;;;7.88;4.35;;;4.40;99.90;;;;;;5046746;28;20021;-64
2022/12/02 12:38:55;;;;;;;7.80;4.28;;;4.50;99.90;;;;;;5047324;28;20414;-63
2022/12/02 12:41:21;;;;;;;6.82;3.97;;;4.40;99.90;;;;;;5045552;28;20021;-63
2022/12/02 12:43:46;;;;;;;8.82;4.57;;;4.40;99.90;;;;;;5042185;28;20067;-64
2022/12/02 12:46:12;;;;;;;7.82;4.07;;;4.40;99.90;;;;;;5049474;28;20033;-64
2022/12/02 12:48:38;;;;;;;8.57;5.00;;;4.40;99.90;;;;;;5051780;28;20062;-64
2022/12/02 12:51:03;;;;;;;7.55;4.40;;;4.30;99.90;;;;;;5045798;28;20064;-64